sensor_id;sensor_type;location;lat;lon;timestamp;pressure;altitude;pressure_sealevel;temperature;humidity
52935;BME280;38802;50.198;19.796;2023-04-06T00:02:18;96476.20;;;-1.53;62.72
52935;BME280;38802;50.198;19.796;2023-04-06T00:04:46;96476.26;;;-1.55;62.40
52935;BME280;38802;50.198;19.796;2023-04-06T00:07:14;96477.30;;;-1.56;62.93
52935;BME280;38802;50.198;19.796;2023-04-06T00:09:43;96477.39;;;-1.59;62.67
52935;BME280;38802;50.198;19.796;2023-04-06T00:12:11;96475.27;;;-1.62;62.81
52935;BME280;38802;50.198;19.796;2023-04-06T00:14:39;96472.08;;;-1.63;62.49
52935;BME280;38802;50.198;19.796;2023-04-06T00:17:08;96470.35;;;-1.62;62.86
52935;BME280;38802;50.198;19.796;2023-04-06T00:19:36;96467.64;;;-1.63;62.71
52935;BME280;38802;50.198;19.796;2023-04-06T00:22:05;96465.13;;;-1.64;62.48
52935;BME280;38802;50.198;19.796;2023-04-06T00:24:33;96463.52;;;-1.67;62.83
52935;BME280;38802;50.198;19.796;2023-04-06T00:27:01;96464.02;;;-1.67;62.88
52935;BME280;38802;50.198;19.796;2023-04-06T00:29:29;96459.72;;;-1.66;63.04
52935;BME280;38802;50.198;19.796;2023-04-06T00:31:57;96458.38;;;-1.66;63.26
52935;BME280;38802;50.198;19.796;2023-04-06T00:34:25;96460.63;;;-1.68;62.98
52935;BME280;38802;50.198;19.796;2023-04-06T00:36:53;96457.15;;;-1.71;63.62
52935;BME280;38802;50.198;19.796;2023-04-06T00:39:21;96458.89;;;-1.78;62.92
52935;BME280;38802;50.198;19.796;2023-04-06T00:41:51;96457.27;;;-1.81;63.06
52935;BME280;38802;50.198;19.796;2023-04-06T00:44:20;96458.83;;;-1.81;63.09
52935;BME280;38802;50.198;19.796;2023-04-06T00:46:49;96456.06;;;-1.80;63.12
52935;BME280;38802;50.198;19.796;2023-04-06T00:49:18;96455.37;;;-1.80;63.35
52935;BME280;38802;50.198;19.796;2023-04-06T00:51:46;96453.98;;;-1.79;63.50
52935;BME280;38802;50.198;19.796;2023-04-06T00:54:15;96454.27;;;-1.77;63.56
52935;BME280;38802;50.198;19.796;2023-04-06T00:56:43;96450.86;;;-1.77;63.37
52935;BME280;38802;50.198;19.796;2023-04-06T00:59:12;96450.84;;;-1.77;63.53
52935;BME280;38802;50.198;19.796;2023-04-06T01:01:40;96450.53;;;-1.77;63.32
52935;BME280;38802;50.198;19.796;2023-04-06T01:04:21;96448.05;;;-1.75;63.68
52935;BME280;38802;50.198;19.796;2023-04-06T01:06:52;96446.63;;;-1.72;63.75
52935;BME280;38802;50.198;19.796;2023-04-06T01:09:22;96444.22;;;-1.71;63.78
52935;BME280;38802;50.198;19.796;2023-04-06T01:11:51;96444.27;;;-1.72;63.68
52935;BME280;38802;50.198;19.796;2023-04-06T01:14:21;96440.68;;;-1.73;63.69
52935;BME280;38802;50.198;19.796;2023-04-06T01:16:58;96440.38;;;-1.68;63.73
52935;BME280;38802;50.198;19.796;2023-04-06T01:19:30;96439.98;;;-1.66;63.80
52935;BME280;38802;50.198;19.796;2023-04-06T01:21:58;96434.98;;;-1.65;63.81
52935;BME280;38802;50.198;19.796;2023-04-06T01:24:33;96438.19;;;-1.64;64.04
52935;BME280;38802;50.198;19.796;2023-04-06T01:27:01;96434.16;;;-1.66;63.99
52935;BME280;38802;50.198;19.796;2023-04-06T01:29:50;96432.80;;;-1.60;64.05
52935;BME280;38802;50.198;19.796;2023-04-06T01:32:31;96429.77;;;-1.55;64.22
52935;BME280;38802;50.198;19.796;2023-04-06T01:35:00;96427.70;;;-1.50;64.06
52935;BME280;38802;50.198;19.796;2023-04-06T01:37:29;96426.09;;;-1.47;64.21
52935;BME280;38802;50.198;19.796;2023-04-06T01:40:00;96429.11;;;-1.46;64.14
52935;BME280;38802;50.198;19.796;2023-04-06T01:42:39;96428.13;;;-1.47;64.23
52935;BME280;38802;50.198;19.796;2023-04-06T01:45:09;96426.52;;;-1.55;63.98
52935;BME280;38802;50.198;19.796;2023-04-06T01:47:38;96424.25;;;-1.65;64.20
52935;BME280;38802;50.198;19.796;2023-04-06T01:50:06;96425.73;;;-1.68;64.10
52935;BME280;38802;50.198;19.796;2023-04-06T01:52:38;96423.57;;;-1.65;64.23
52935;BME280;38802;50.198;19.796;2023-04-06T01:55:06;96423.73;;;-1.64;64.30
52935;BME280;38802;50.198;19.796;2023-04-06T01:57:52;96424.30;;;-1.66;64.26
52935;BME280;38802;50.198;19.796;2023-04-06T02:00:30;96415.52;;;-1.68;64.15
52935;BME280;38802;50.198;19.796;2023-04-06T02:02:58;96411.94;;;-1.68;64.48
52935;BME280;38802;50.198;19.796;2023-04-06T02:05:29;96410.08;;;-1.69;64.37
52935;BME280;38802;50.198;19.796;2023-04-06T02:07:58;96410.07;;;-1.75;64.07
52935;BME280;38802;50.198;19.796;2023-04-06T02:10:32;96410.16;;;-1.78;64.30
52935;BME280;38802;50.198;19.796;2023-04-06T02:13:03;96405.64;;;-1.80;64.62
52935;BME280;38802;50.198;19.796;2023-04-06T02:15:31;96409.41;;;-1.81;64.49
52935;BME280;38802;50.198;19.796;2023-04-06T02:17:59;96409.38;;;-1.80;64.44
52935;BME280;38802;50.198;19.796;2023-04-06T02:20:28;96411.58;;;-1.85;64.53
52935;BME280;38802;50.198;19.796;2023-04-06T02:22:58;96412.66;;;-1.92;64.51
52935;BME280;38802;50.198;19.796;2023-04-06T02:25:28;96415.69;;;-1.97;64.54
52935;BME280;38802;50.198;19.796;2023-04-06T02:27:56;96410.38;;;-2.01;64.72
52935;BME280;38802;50.198;19.796;2023-04-06T02:30:24;96411.90;;;-2.12;64.90
52935;BME280;38802;50.198;19.796;2023-04-06T02:32:52;96411.51;;;-2.23;64.98
52935;BME280;38802;50.198;19.796;2023-04-06T02:35:20;96412.20;;;-2.29;65.07
52935;BME280;38802;50.198;19.796;2023-04-06T02:37:52;96409.76;;;-2.32;65.07
52935;BME280;38802;50.198;19.796;2023-04-06T02:40:20;96410.67;;;-2.35;64.94
52935;BME280;38802;50.198;19.796;2023-04-06T02:42:49;96408.03;;;-2.37;65.11
52935;BME280;38802;50.198;19.796;2023-04-06T02:45:21;96405.21;;;-2.40;65.10
52935;BME280;38802;50.198;19.796;2023-04-06T02:47:49;96405.19;;;-2.39;65.00
52935;BME280;38802;50.198;19.796;2023-04-06T02:50:18;96404.73;;;-2.35;65.04
52935;BME280;38802;50.198;19.796;2023-04-06T02:52:53;96408.84;;;-2.30;65.00
52935;BME280;38802;50.198;19.796;2023-04-06T02:55:21;96413.92;;;-2.30;65.03
52935;BME280;38802;50.198;19.796;2023-04-06T02:57:49;96415.44;;;-2.29;65.47
52935;BME280;38802;50.198;19.796;2023-04-06T03:00:18;96417.21;;;-2.31;65.26
52935;BME280;38802;50.198;19.796;2023-04-06T03:02:47;96415.85;;;-2.37;65.33
52935;BME280;38802;50.198;19.796;2023-04-06T03:05:16;96419.27;;;-2.37;65.27
52935;BME280;38802;50.198;19.796;2023-04-06T03:07:44;96418.19;;;-2.35;65.44
52935;BME280;38802;50.198;19.796;2023-04-06T03:10:18;96418.13;;;-2.39;65.52
52935;BME280;38802;50.198;19.796;2023-04-06T03:12:48;96416.42;;;-2.45;65.69
52935;BME280;38802;50.198;19.796;2023-04-06T03:15:19;96418.75;;;-2.49;65.63
52935;BME280;38802;50.198;19.796;2023-04-06T03:17:58;96416.11;;;-2.52;65.65
52935;BME280;38802;50.198;19.796;2023-04-06T03:20:33;96421.96;;;-2.55;65.59
52935;BME280;38802;50.198;19.796;2023-04-06T03:23:01;96421.30;;;-2.55;65.58
52935;BME280;38802;50.198;19.796;2023-04-06T03:25:33;96421.27;;;-2.54;65.82
52935;BME280;38802;50.198;19.796;2023-04-06T03:28:04;96422.33;;;-2.49;65.70
52935;BME280;38802;50.198;19.796;2023-04-06T03:30:34;96423.44;;;-2.46;65.61
52935;BME280;38802;50.198;19.796;2023-04-06T03:33:03;96419.48;;;-2.45;65.67
52935;BME280;38802;50.198;19.796;2023-04-06T03:35:33;96423.59;;;-2.45;65.57
52935;BME280;38802;50.198;19.796;2023-04-06T03:38:01;96416.91;;;-2.50;65.73
52935;BME280;38802;50.198;19.796;2023-04-06T03:40:32;96420.56;;;-2.53;65.91
52935;BME280;38802;50.198;19.796;2023-04-06T03:43:01;96420.73;;;-2.59;65.78
52935;BME280;38802;50.198;19.796;2023-04-06T03:45:30;96417.86;;;-2.60;65.76
52935;BME280;38802;50.198;19.796;2023-04-06T03:47:59;96421.06;;;-2.59;65.72
52935;BME280;38802;50.198;19.796;2023-04-06T03:50:33;96417.68;;;-2.59;65.74
52935;BME280;38802;50.198;19.796;2023-04-06T03:53:01;96415.27;;;-2.59;65.91
52935;BME280;38802;50.198;19.796;2023-04-06T03:55:32;96416.48;;;-2.60;65.93
52935;BME280;38802;50.198;19.796;2023-04-06T03:58:00;96417.88;;;-2.61;66.02
52935;BME280;38802;50.198;19.796;2023-04-06T04:00:28;96419.58;;;-2.61;65.73
52935;BME280;38802;50.198;19.796;2023-04-06T04:02:57;96421.95;;;-2.61;65.93
52935;BME280;38802;50.198;19.796;2023-04-06T04:05:25;96423.69;;;-2.63;65.95
52935;BME280;38802;50.198;19.796;2023-04-06T04:07:53;96425.76;;;-2.64;66.07
52935;BME280;38802;50.198;19.796;2023-04-06T04:10:24;96421.47;;;-2.68;65.99
52935;BME280;38802;50.198;19.796;2023-04-06T04:12:52;96424.51;;;-2.74;65.91
52935;BME280;38802;50.198;19.796;2023-04-06T04:15:20;96423.59;;;-2.77;66.13
52935;BME280;38802;50.198;19.796;2023-04-06T04:17:48;96421.30;;;-2.81;66.04
52935;BME280;38802;50.198;19.796;2023-04-06T04:20:19;96422.00;;;-2.82;66.19
52935;BME280;38802;50.198;19.796;2023-04-06T04:22:47;96420.80;;;-2.81;66.35
52935;BME280;38802;50.198;19.796;2023-04-06T04:25:15;96421.64;;;-2.81;66.35
52935;BME280;38802;50.198;19.796;2023-04-06T04:27:47;96421.48;;;-2.81;66.36
52935;BME280;38802;50.198;19.796;2023-04-06T04:30:15;96420.91;;;-2.78;66.37
52935;BME280;38802;50.198;19.796;2023-04-06T04:32:43;96416.69;;;-2.80;66.33
52935;BME280;38802;50.198;19.796;2023-04-06T04:35:12;96418.21;;;-2.79;66.56
52935;BME280;38802;50.198;19.796;2023-04-06T04:37:42;96416.95;;;-2.77;66.52
52935;BME280;38802;50.198;19.796;2023-04-06T04:40:11;96418.40;;;-2.74;66.76
52935;BME280;38802;50.198;19.796;2023-04-06T04:42:52;96415.85;;;-2.74;66.65
52935;BME280;38802;50.198;19.796;2023-04-06T04:45:25;96411.26;;;-2.74;66.84
52935;BME280;38802;50.198;19.796;2023-04-06T04:47:53;96412.44;;;-2.74;66.83
52935;BME280;38802;50.198;19.796;2023-04-06T04:50:22;96411.17;;;-2.71;67.16
52935;BME280;38802;50.198;19.796;2023-04-06T04:52:51;96408.42;;;-2.70;66.94
52935;BME280;38802;50.198;19.796;2023-04-06T04:55:22;96407.43;;;-2.65;66.77
52935;BME280;38802;50.198;19.796;2023-04-06T04:57:53;96409.64;;;-2.58;67.01
52935;BME280;38802;50.198;19.796;2023-04-06T05:00:26;96409.95;;;-2.57;66.97
52935;BME280;38802;50.198;19.796;2023-04-06T05:02:56;96410.91;;;-2.55;66.85
52935;BME280;38802;50.198;19.796;2023-04-06T05:05:28;96407.77;;;-2.52;67.00
52935;BME280;38802;50.198;19.796;2023-04-06T05:07:56;96410.76;;;-2.43;67.16
52935;BME280;38802;50.198;19.796;2023-04-06T05:10:41;96406.61;;;-2.35;67.00
52935;BME280;38802;50.198;19.796;2023-04-06T05:13:10;96408.30;;;-2.29;67.09
52935;BME280;38802;50.198;19.796;2023-04-06T05:15:38;96409.10;;;-2.22;66.89
52935;BME280;38802;50.198;19.796;2023-04-06T05:18:20;96405.20;;;-2.10;67.02
52935;BME280;38802;50.198;19.796;2023-04-06T05:20:49;96401.20;;;-1.96;67.14
52935;BME280;38802;50.198;19.796;2023-04-06T05:23:21;96401.01;;;-1.84;67.03
52935;BME280;38802;50.198;19.796;2023-04-06T05:25:50;96401.55;;;-1.74;67.00
52935;BME280;38802;50.198;19.796;2023-04-06T05:28:21;96401.46;;;-1.71;66.99
52935;BME280;38802;50.198;19.796;2023-04-06T05:30:50;96404.36;;;-1.66;66.95
52935;BME280;38802;50.198;19.796;2023-04-06T05:33:18;96402.71;;;-1.63;66.38
52935;BME280;38802;50.198;19.796;2023-04-06T05:36:05;96403.11;;;-1.59;66.35
52935;BME280;38802;50.198;19.796;2023-04-06T05:38:37;96398.93;;;-1.62;66.47
52935;BME280;38802;50.198;19.796;2023-04-06T05:41:13;96397.14;;;-1.58;66.38
52935;BME280;38802;50.198;19.796;2023-04-06T05:43:41;96397.15;;;-1.53;66.30
52935;BME280;38802;50.198;19.796;2023-04-06T05:46:10;96390.86;;;-1.49;66.00
52935;BME280;38802;50.198;19.796;2023-04-06T05:48:38;96391.95;;;-1.51;66.16
52935;BME280;38802;50.198;19.796;2023-04-06T05:51:07;96395.67;;;-1.50;65.94
52935;BME280;38802;50.198;19.796;2023-04-06T05:53:43;96397.40;;;-1.51;66.01
52935;BME280;38802;50.198;19.796;2023-04-06T05:56:12;96399.55;;;-1.48;66.06
52935;BME280;38802;50.198;19.796;2023-04-06T05:58:41;96399.45;;;-1.46;66.00
52935;BME280;38802;50.198;19.796;2023-04-06T06:01:10;96398.39;;;-1.45;65.76
52935;BME280;38802;50.198;19.796;2023-04-06T06:03:42;96401.39;;;-1.43;65.88
52935;BME280;38802;50.198;19.796;2023-04-06T06:06:09;96400.71;;;-1.37;66.08
52935;BME280;38802;50.198;19.796;2023-04-06T06:08:52;96394.05;;;-1.37;65.51
52935;BME280;38802;50.198;19.796;2023-04-06T06:11:21;96391.30;;;-1.36;65.65
52935;BME280;38802;50.198;19.796;2023-04-06T06:13:50;96388.63;;;-1.33;65.49
52935;BME280;38802;50.198;19.796;2023-04-06T06:16:19;96391.31;;;-1.31;65.06
52935;BME280;38802;50.198;19.796;2023-04-06T06:18:48;96389.41;;;-1.30;65.41
52935;BME280;38802;50.198;19.796;2023-04-06T06:21:17;96389.43;;;-1.31;64.99
52935;BME280;38802;50.198;19.796;2023-04-06T06:23:45;96388.91;;;-1.30;65.07
52935;BME280;38802;50.198;19.796;2023-04-06T06:26:17;96389.17;;;-1.28;65.34
52935;BME280;38802;50.198;19.796;2023-04-06T06:28:45;96390.40;;;-1.29;65.06
52935;BME280;38802;50.198;19.796;2023-04-06T06:31:13;96391.13;;;-1.31;65.12
52935;BME280;38802;50.198;19.796;2023-04-06T06:33:43;96391.06;;;-1.28;65.53
52935;BME280;38802;50.198;19.796;2023-04-06T06:36:12;96395.60;;;-1.21;64.97
52935;BME280;38802;50.198;19.796;2023-04-06T06:38:41;96395.75;;;-1.16;65.42
52935;BME280;38802;50.198;19.796;2023-04-06T06:41:09;96393.91;;;-1.12;65.16
52935;BME280;38802;50.198;19.796;2023-04-06T06:43:37;96393.73;;;-1.11;65.11
52935;BME280;38802;50.198;19.796;2023-04-06T06:46:10;96393.73;;;-1.06;65.11
52935;BME280;38802;50.198;19.796;2023-04-06T06:48:40;96394.31;;;-1.04;64.74
52935;BME280;38802;50.198;19.796;2023-04-06T06:51:08;96396.84;;;-1.03;65.15
52935;BME280;38802;50.198;19.796;2023-04-06T06:53:40;96397.02;;;-1.03;65.01
52935;BME280;38802;50.198;19.796;2023-04-06T06:56:08;96392.14;;;-1.05;64.57
52935;BME280;38802;50.198;19.796;2023-04-06T06:58:36;96389.16;;;-1.03;64.71
52935;BME280;38802;50.198;19.796;2023-04-06T07:01:04;96390.28;;;-1.01;64.52
52935;BME280;38802;50.198;19.796;2023-04-06T07:03:34;96388.64;;;-0.98;64.69
52935;BME280;38802;50.198;19.796;2023-04-06T07:06:02;96391.98;;;-0.96;65.05
52935;BME280;38802;50.198;19.796;2023-04-06T07:08:30;96394.20;;;-0.96;64.66
52935;BME280;38802;50.198;19.796;2023-04-06T07:10:58;96391.48;;;-1.01;63.98
52935;BME280;38802;50.198;19.796;2023-04-06T07:13:26;96393.76;;;-1.07;63.99
52935;BME280;38802;50.198;19.796;2023-04-06T07:15:57;96394.88;;;-1.15;63.95
52935;BME280;38802;50.198;19.796;2023-04-06T07:18:25;96395.73;;;-1.15;63.66
52935;BME280;38802;50.198;19.796;2023-04-06T07:20:53;96397.36;;;-1.18;64.18
52935;BME280;38802;50.198;19.796;2023-04-06T07:23:21;96396.98;;;-1.17;64.22
52935;BME280;38802;50.198;19.796;2023-04-06T07:25:50;96397.77;;;-1.15;63.99
52935;BME280;38802;50.198;19.796;2023-04-06T07:28:20;96398.77;;;-1.14;63.71
52935;BME280;38802;50.198;19.796;2023-04-06T07:30:48;96400.02;;;-1.11;63.85
52935;BME280;38802;50.198;19.796;2023-04-06T07:33:16;96397.56;;;-1.09;63.82
52935;BME280;38802;50.198;19.796;2023-04-06T07:35:44;96397.89;;;-1.04;63.78
52935;BME280;38802;50.198;19.796;2023-04-06T07:38:13;96398.30;;;-0.96;64.49
52935;BME280;38802;50.198;19.796;2023-04-06T07:40:42;96400.59;;;-0.88;64.33
52935;BME280;38802;50.198;19.796;2023-04-06T07:43:13;96400.68;;;-0.85;64.03
52935;BME280;38802;50.198;19.796;2023-04-06T07:45:41;96399.90;;;-0.87;63.69
52935;BME280;38802;50.198;19.796;2023-04-06T07:48:10;96394.95;;;-0.87;64.01
52935;BME280;38802;50.198;19.796;2023-04-06T07:50:39;96394.77;;;-0.82;63.65
52935;BME280;38802;50.198;19.796;2023-04-06T07:53:09;96386.41;;;-0.72;63.47
52935;BME280;38802;50.198;19.796;2023-04-06T07:55:38;96389.50;;;-0.68;63.01
52935;BME280;38802;50.198;19.796;2023-04-06T07:58:06;96389.59;;;-0.66;62.94
52935;BME280;38802;50.198;19.796;2023-04-06T08:00:34;96390.66;;;-0.57;63.20
52935;BME280;38802;50.198;19.796;2023-04-06T08:03:02;96386.56;;;-0.48;62.88
52935;BME280;38802;50.198;19.796;2023-04-06T08:05:31;96384.77;;;-0.31;62.81
52935;BME280;38802;50.198;19.796;2023-04-06T08:07:59;96387.21;;;-0.24;62.14
52935;BME280;38802;50.198;19.796;2023-04-06T08:10:27;96381.64;;;-0.21;62.92
52935;BME280;38802;50.198;19.796;2023-04-06T08:12:55;96384.34;;;-0.15;62.06
52935;BME280;38802;50.198;19.796;2023-04-06T08:15:23;96388.10;;;-0.11;62.34
52935;BME280;38802;50.198;19.796;2023-04-06T08:17:51;96381.45;;;-0.07;61.78
52935;BME280;38802;50.198;19.796;2023-04-06T08:20:19;96378.25;;;-0.04;62.03
52935;BME280;38802;50.198;19.796;2023-04-06T08:22:47;96375.17;;;0.06;62.09
52935;BME280;38802;50.198;19.796;2023-04-06T08:25:17;96376.60;;;0.09;61.63
52935;BME280;38802;50.198;19.796;2023-04-06T08:27:46;96367.64;;;0.15;61.21
52935;BME280;38802;50.198;19.796;2023-04-06T08:30:14;96370.08;;;0.14;60.98
52935;BME280;38802;50.198;19.796;2023-04-06T08:32:46;96367.10;;;0.11;61.21
52935;BME280;38802;50.198;19.796;2023-04-06T08:35:14;96364.45;;;0.13;60.74
52935;BME280;38802;50.198;19.796;2023-04-06T08:37:42;96358.91;;;0.15;61.03
52935;BME280;38802;50.198;19.796;2023-04-06T08:40:12;96352.20;;;0.25;61.59
52935;BME280;38802;50.198;19.796;2023-04-06T08:42:44;96351.84;;;0.42;60.82
52935;BME280;38802;50.198;19.796;2023-04-06T08:45:17;96348.86;;;0.53;60.70
52935;BME280;38802;50.198;19.796;2023-04-06T08:47:52;96351.59;;;0.57;60.44
52935;BME280;38802;50.198;19.796;2023-04-06T08:50:20;96356.79;;;0.60;60.23
52935;BME280;38802;50.198;19.796;2023-04-06T08:52:49;96354.09;;;0.63;60.17
52935;BME280;38802;50.198;19.796;2023-04-06T08:55:17;96355.39;;;0.69;59.95
52935;BME280;38802;50.198;19.796;2023-04-06T08:57:45;96349.39;;;0.61;59.73
52935;BME280;38802;50.198;19.796;2023-04-06T09:00:15;96348.55;;;0.52;59.90
52935;BME280;38802;50.198;19.796;2023-04-06T09:02:47;96346.98;;;0.53;60.17
52935;BME280;38802;50.198;19.796;2023-04-06T09:05:17;96340.77;;;0.59;60.29
52935;BME280;38802;50.198;19.796;2023-04-06T09:07:45;96333.52;;;0.73;60.44
52935;BME280;38802;50.198;19.796;2023-04-06T09:10:13;96334.77;;;0.75;59.86
52935;BME280;38802;50.198;19.796;2023-04-06T09:12:43;96337.19;;;0.71;59.31
52935;BME280;38802;50.198;19.796;2023-04-06T09:15:20;96332.61;;;0.66;59.58
52935;BME280;38802;50.198;19.796;2023-04-06T09:17:51;96329.33;;;0.66;59.71
52935;BME280;38802;50.198;19.796;2023-04-06T09:20:24;96320.30;;;0.66;59.52
52935;BME280;38802;50.198;19.796;2023-04-06T09:22:58;96324.89;;;0.62;59.58
52935;BME280;38802;50.198;19.796;2023-04-06T09:25:27;96325.05;;;0.58;59.54
52935;BME280;38802;50.198;19.796;2023-04-06T09:28:04;96326.55;;;0.59;59.36
52935;BME280;38802;50.198;19.796;2023-04-06T09:30:34;96323.23;;;0.57;59.08
52935;BME280;38802;50.198;19.796;2023-04-06T09:33:03;96325.51;;;0.52;59.73
52935;BME280;38802;50.198;19.796;2023-04-06T09:35:32;96327.28;;;0.54;59.62
52935;BME280;38802;50.198;19.796;2023-04-06T09:38:10;96323.20;;;0.50;59.33
52935;BME280;38802;50.198;19.796;2023-04-06T09:40:50;96317.80;;;0.52;59.39
52935;BME280;38802;50.198;19.796;2023-04-06T09:43:29;96318.91;;;0.58;59.74
52935;BME280;38802;50.198;19.796;2023-04-06T09:45:59;96321.48;;;0.62;59.72
52935;BME280;38802;50.198;19.796;2023-04-06T09:48:30;96314.76;;;0.63;59.79
52935;BME280;38802;50.198;19.796;2023-04-06T09:50:59;96316.73;;;0.69;59.90
52935;BME280;38802;50.198;19.796;2023-04-06T09:53:31;96314.34;;;0.69;59.69
52935;BME280;38802;50.198;19.796;2023-04-06T09:56:02;96309.56;;;0.73;59.69
52935;BME280;38802;50.198;19.796;2023-04-06T09:58:34;96308.30;;;0.74;59.88
52935;BME280;38802;50.198;19.796;2023-04-06T10:01:10;96311.11;;;0.77;59.69
52935;BME280;38802;50.198;19.796;2023-04-06T10:03:45;96316.16;;;0.78;59.53
52935;BME280;38802;50.198;19.796;2023-04-06T10:06:21;96308.76;;;0.80;59.59
52935;BME280;38802;50.198;19.796;2023-04-06T10:08:51;96302.95;;;0.76;59.76
52935;BME280;38802;50.198;19.796;2023-04-06T10:11:22;96312.67;;;0.72;60.33
52935;BME280;38802;50.198;19.796;2023-04-06T10:13:50;96314.01;;;0.69;60.59
52935;BME280;38802;50.198;19.796;2023-04-06T10:16:19;96307.47;;;0.70;60.45
52935;BME280;38802;50.198;19.796;2023-04-06T10:19:02;96305.00;;;0.55;60.88
52935;BME280;38802;50.198;19.796;2023-04-06T10:21:33;96301.66;;;0.58;61.14
52935;BME280;38802;50.198;19.796;2023-04-06T10:24:09;96297.35;;;0.63;61.57
52935;BME280;38802;50.198;19.796;2023-04-06T10:26:38;96292.03;;;0.71;61.50
52935;BME280;38802;50.198;19.796;2023-04-06T10:29:06;96294.41;;;0.79;61.65
52935;BME280;38802;50.198;19.796;2023-04-06T10:31:41;96291.60;;;0.81;61.61
52935;BME280;38802;50.198;19.796;2023-04-06T10:34:11;96288.42;;;0.83;62.04
52935;BME280;38802;50.198;19.796;2023-04-06T10:36:39;96294.14;;;0.85;61.65
52935;BME280;38802;50.198;19.796;2023-04-06T10:39:07;96297.52;;;0.82;61.76
52935;BME280;38802;50.198;19.796;2023-04-06T10:41:41;96292.77;;;0.77;62.07
52935;BME280;38802;50.198;19.796;2023-04-06T10:44:23;96294.98;;;0.74;62.40
52935;BME280;38802;50.198;19.796;2023-04-06T10:46:55;96292.93;;;0.66;62.67
52935;BME280;38802;50.198;19.796;2023-04-06T10:49:24;96287.63;;;0.54;62.95
52935;BME280;38802;50.198;19.796;2023-04-06T10:51:55;96289.17;;;0.50;63.67
52935;BME280;38802;50.198;19.796;2023-04-06T10:54:25;96288.34;;;0.49;64.02
52935;BME280;38802;50.198;19.796;2023-04-06T10:56:53;96285.11;;;0.44;64.14
52935;BME280;38802;50.198;19.796;2023-04-06T10:59:22;96282.17;;;0.41;64.46
52935;BME280;38802;50.198;19.796;2023-04-06T11:01:51;96280.14;;;0.45;64.56
52935;BME280;38802;50.198;19.796;2023-04-06T11:04:21;96281.12;;;0.50;64.63
52935;BME280;38802;50.198;19.796;2023-04-06T11:06:50;96277.32;;;0.59;65.01
52935;BME280;38802;50.198;19.796;2023-04-06T11:09:28;96278.09;;;0.65;65.27
52935;BME280;38802;50.198;19.796;2023-04-06T11:11:57;96281.48;;;0.61;65.70
52935;BME280;38802;50.198;19.796;2023-04-06T11:14:25;96280.45;;;0.58;65.64
52935;BME280;38802;50.198;19.796;2023-04-06T11:16:54;96273.59;;;0.54;65.97
52935;BME280;38802;50.198;19.796;2023-04-06T11:19:23;96272.36;;;0.55;66.38
52935;BME280;38802;50.198;19.796;2023-04-06T11:21:52;96266.86;;;0.56;66.69
52935;BME280;38802;50.198;19.796;2023-04-06T11:24:24;96267.02;;;0.52;66.61
52935;BME280;38802;50.198;19.796;2023-04-06T11:26:55;96268.58;;;0.56;67.19
52935;BME280;38802;50.198;19.796;2023-04-06T11:29:28;96265.80;;;0.57;67.42
52935;BME280;38802;50.198;19.796;2023-04-06T11:32:02;96270.38;;;0.70;67.38
52935;BME280;38802;50.198;19.796;2023-04-06T11:34:33;96268.81;;;0.71;67.70
52935;BME280;38802;50.198;19.796;2023-04-06T11:37:09;96263.97;;;0.64;67.20
52935;BME280;38802;50.198;19.796;2023-04-06T11:39:39;96264.80;;;0.64;67.66
52935;BME280;38802;50.198;19.796;2023-04-06T11:42:08;96259.33;;;0.56;68.00
52935;BME280;38802;50.198;19.796;2023-04-06T11:44:38;96259.88;;;0.51;68.21
52935;BME280;38802;50.198;19.796;2023-04-06T11:47:09;96255.36;;;0.49;68.64
52935;BME280;38802;50.198;19.796;2023-04-06T11:49:40;96257.20;;;0.46;69.03
52935;BME280;38802;50.198;19.796;2023-04-06T11:52:19;96257.77;;;0.40;69.23
52935;BME280;38802;50.198;19.796;2023-04-06T11:54:48;96257.08;;;0.36;69.87
52935;BME280;38802;50.198;19.796;2023-04-06T11:57:21;96256.86;;;0.33;70.10
52935;BME280;38802;50.198;19.796;2023-04-06T11:59:54;96253.70;;;0.27;70.04
52935;BME280;38802;50.198;19.796;2023-04-06T12:02:22;96251.76;;;0.24;70.93
52935;BME280;38802;50.198;19.796;2023-04-06T12:04:51;96254.25;;;0.18;71.20
52935;BME280;38802;50.198;19.796;2023-04-06T12:07:19;96250.48;;;0.22;71.21
52935;BME280;38802;50.198;19.796;2023-04-06T12:09:47;96248.29;;;0.21;71.63
52935;BME280;38802;50.198;19.796;2023-04-06T12:12:15;96243.96;;;0.19;72.12
52935;BME280;38802;50.198;19.796;2023-04-06T12:14:43;96246.47;;;0.16;72.58
52935;BME280;38802;50.198;19.796;2023-04-06T12:17:12;96246.31;;;0.12;72.97
52935;BME280;38802;50.198;19.796;2023-04-06T12:19:42;96248.71;;;0.07;72.70
52935;BME280;38802;50.198;19.796;2023-04-06T12:22:10;96246.53;;;0.06;73.48
52935;BME280;38802;50.198;19.796;2023-04-06T12:24:38;96239.06;;;0.01;73.22
52935;BME280;38802;50.198;19.796;2023-04-06T12:27:06;96240.96;;;0.01;74.20
52935;BME280;38802;50.198;19.796;2023-04-06T12:29:38;96236.80;;;-0.07;74.98
52935;BME280;38802;50.198;19.796;2023-04-06T12:32:06;96243.58;;;-0.14;74.18
52935;BME280;38802;50.198;19.796;2023-04-06T12:34:34;96246.83;;;-0.14;74.27
52935;BME280;38802;50.198;19.796;2023-04-06T12:37:02;96243.64;;;-0.11;73.94
52935;BME280;38802;50.198;19.796;2023-04-06T12:39:30;96242.09;;;-0.07;74.25
52935;BME280;38802;50.198;19.796;2023-04-06T12:41:59;96237.33;;;0.06;75.26
52935;BME280;38802;50.198;19.796;2023-04-06T12:44:27;96230.84;;;0.14;75.87
52935;BME280;38802;50.198;19.796;2023-04-06T12:46:55;96228.60;;;0.10;75.48
52935;BME280;38802;50.198;19.796;2023-04-06T12:49:24;96223.83;;;0.06;75.84
52935;BME280;38802;50.198;19.796;2023-04-06T12:51:52;96224.44;;;-0.05;76.29
52935;BME280;38802;50.198;19.796;2023-04-06T12:54:20;96226.17;;;-0.10;75.95
52935;BME280;38802;50.198;19.796;2023-04-06T12:56:48;96225.15;;;-0.10;76.38
52935;BME280;38802;50.198;19.796;2023-04-06T12:59:16;96226.98;;;-0.13;76.07
52935;BME280;38802;50.198;19.796;2023-04-06T13:01:44;96220.70;;;-0.10;76.96
52935;BME280;38802;50.198;19.796;2023-04-06T13:04:13;96214.47;;;-0.12;76.33
52935;BME280;38802;50.198;19.796;2023-04-06T13:06:41;96212.70;;;-0.11;77.66
52935;BME280;38802;50.198;19.796;2023-04-06T13:09:09;96214.94;;;-0.15;77.45